DC11 weather

National Presbyterian Church Heliport
Washington, District of Columbia, United States

Public forecast

Using degrees Fahrenheit for public forecast. Weather courtesy of forecast.io.

METAR (pilot weather report)

Closest report is Ronald Reagan Washington National Airport, 5.8 nm (10.7 km) SSE. Retrieved 2019/05/26 09:52 UTC (35 minutes ago):

KDCA 260952Z 20004KT 10SM FEW120 FEW160 SCT250 21/19 A3002 RMK AO2 SLP165 T02060189 $

TAF (pilot weather forecast)

Closest forecast is Ronald Reagan Washington National Airport, 5.8 nm (10.7 km) SSE. Retrieved 2019/05/26 06:34 UTC (4 hours ago):

TAF KDCA 260532Z 2606/2712 17007KT P6SM BKN080 FM260800 22005KT P6SM SCT050 FM261100 25005KT P6SM SCT250 FM261800 28008KT P6SM BKN045 FM262100 29008KT P6SM -SHRA VCTS BKN040CB FM270000 31007KT P6SM BKN060